Airfield :
LOGIN :

Register | Disclaimer

   EN    FR    IT 

 










Legend :    VFR   Marginal VFR   IFR   Intensive IFR   Very Intensive IFR
Visi :
Ceiling :
>= 8 km
>= 3000ft
5 to 8 km
1000 to 3000 ft
1500m to 5 km
500 to 1000 ft
800 to 1500m
200 to 500 ft
< 800m
< 200 ft
Symbols :   Thunderstorms  Fog  Heavy snow  Heavy precipitations  Wind > 20 kt
SIGMETs :     Misc.  Thunderstorms  Icing  Turbulence  Mountain Waves  Volcanic Ashes






- Airport Elevation : 465 ft


ENFB - Statfjord B Platform

CURRENT METAR :
  • 272350Z AUTO 30018KT 9999NDV FEW022/// SCT030/// 05/M01 Q0992 W///S5

EXPIRED METARs :
  • 272320Z AUTO 30021KT 9999NDV -SHRA BKN026/// 05/00 Q0991 W///S5
  • 272250Z AUTO 29021KT 9999NDV FEW028/// 05/M01 Q0991 W///S5
  • 272220Z AUTO 30019KT 9999NDV BKN026/// BKN063/// 05/00 Q0990 W///S5
  • 272150Z AUTO 28019KT 9999NDV FEW024/// BKN032/// BKN075/// 05/M01 Q0990 W///S5
  • 272120Z AUTO 25015KT 9999NDV FEW020/// SCT022/// BKN200/// 03/01 Q0990 W///S5

TAF N/A



MET'MAP, your aeronautical weather chart ! - Copyright ORBIFLY December 2007 - Disclaimer

ORBIFLY MET'MAP TEAM :

Programming & Development : Alexandra Zaïnal
Concept & original design : Baudouin d'Aumeries
Assistance for programming : Marc-Olivier Méhu
Technical & hardware support : Manuel Goepfert

Contact : metmap@orbifly.com




SOURCES & CREDITS :

   NOAA